Time;durP1;ratioP1;P1;durP2;ratioP2;P2;SDS_P1;SDS_P2;PMS_P1;PMS_P2;Temp;Humidity;BMP_temperature;BMP_pressure;BME280_temperature;BME280_humidity;BME280_pressure;Samples;Min_cycle;Max_cycle;Signal;HPM_P1;HPM_P2
2021/04/11 00:01:43;;;;;;;1.87;1.73;;;;;;;12.50;48.11;96097.53;4973589;28;20652;-66
2021/04/11 00:04:09;;;;;;;1.57;1.47;;;;;;;12.54;48.14;96105.69;4973734;28;20192;-67
2021/04/11 00:06:34;;;;;;;1.57;1.47;;;;;;;12.43;48.36;96101.41;4974045;28;20232;-68
2021/04/11 00:09:00;;;;;;;1.50;1.40;;;;;;;12.39;48.49;96097.72;4972919;28;20188;-68
2021/04/11 00:11:25;;;;;;;1.77;1.30;;;;;;;12.35;48.68;96100.09;4973445;28;20211;-66
2021/04/11 00:13:53;;;;;;;2.00;1.30;;;;;;;12.34;48.82;96095.88;4955619;28;20185;-66
2021/04/11 00:16:19;;;;;;;1.60;1.50;;;;;;;12.23;49.00;96096.06;4956372;28;20200;-67
2021/04/11 00:18:45;;;;;;;1.37;1.33;;;;;;;12.23;49.00;96086.34;4972542;28;20272;-65
2021/04/11 00:21:11;;;;;;;2.67;1.67;;;;;;;12.18;49.26;96093.41;4973341;28;20276;-66
2021/04/11 00:23:36;;;;;;;2.37;1.40;;;;;;;12.05;49.87;96098.03;4973349;28;20193;-67
2021/04/11 00:26:03;;;;;;;2.70;1.50;;;;;;;12.03;49.49;96099.34;4972746;28;20195;-67
2021/04/11 00:28:29;;;;;;;1.67;1.57;;;;;;;11.93;50.06;96099.25;4974039;28;20192;-68
2021/04/11 00:30:55;;;;;;;1.70;1.60;;;;;;;11.88;50.08;96097.38;4973390;28;20232;-67
2021/04/11 00:33:26;;;;;;;3.70;1.70;;;;;;;11.92;50.29;96097.69;4973118;28;20185;-67
2021/04/11 00:36:11;;;;;;;1.77;1.63;;;;;;;11.85;50.47;96094.50;4955614;28;20664;-67
2021/04/11 00:38:37;;;;;;;2.03;1.40;;;;;;;11.87;50.08;96093.19;4963659;28;20172;-67
2021/04/11 00:41:13;;;;;;;1.67;1.30;;;;;;;11.81;50.24;96096.03;4972812;28;20779;-67
2021/04/11 00:43:40;;;;;;;2.80;1.43;;;;;;;11.82;50.41;96095.75;4973632;28;20197;-67
2021/04/11 00:46:27;;;;;;;1.50;1.43;;;;;;;11.94;49.96;96092.97;4954993;28;20196;-67
2021/04/11 00:48:52;;;;;;;2.07;1.53;;;;;;;11.88;50.06;96091.34;4971823;28;20260;-66
2021/04/11 00:51:22;;;;;;;1.63;1.47;;;;;;;11.73;50.56;96086.78;4955477;28;20279;-67
2021/04/11 00:53:48;;;;;;;1.90;1.30;;;;;;;11.65;50.98;96095.06;4972183;28;20212;-66
2021/04/11 00:56:16;;;;;;;1.57;1.50;;;;;;;11.60;50.97;96087.94;4972878;28;20227;-67
2021/04/11 00:58:41;;;;;;;1.40;1.40;;;;;;;11.70;50.99;96087.25;4955584;28;20191;-66
2021/04/11 01:01:07;;;;;;;1.57;1.47;;;;;;;11.55;51.50;96084.50;4972783;28;20188;-66
2021/04/11 01:03:36;;;;;;;1.60;1.50;;;;;;;11.50;51.55;96081.81;4973087;28;20192;-66
2021/04/11 01:06:03;;;;;;;1.63;1.53;;;;;;;11.50;51.57;96073.94;4971493;28;20220;-66
2021/04/11 01:08:31;;;;;;;1.70;1.60;;;;;;;11.39;52.26;96070.44;4972812;28;20184;-67
2021/04/11 01:11:09;;;;;;;1.60;1.50;;;;;;;11.45;51.93;96064.22;4971907;28;20196;-66
2021/04/11 01:13:38;;;;;;;2.83;1.57;;;;;;;11.53;51.76;96058.50;4966372;28;20622;-66
2021/04/11 01:16:04;;;;;;;1.40;1.30;;;;;;;11.37;52.28;96058.63;4972268;28;20291;-67
2021/04/11 01:18:30;;;;;;;1.80;1.40;;;;;;;11.40;52.28;96053.66;4971397;28;20189;-67
2021/04/11 01:21:00;;;;;;;1.30;1.17;;;;;;;11.36;52.29;96047.34;4971747;28;20537;-67
2021/04/11 01:23:28;;;;;;;1.97;1.30;;;;;;;11.41;52.25;96054.47;4972370;28;20185;-67
2021/04/11 01:25:58;;;;;;;1.47;1.43;;;;;;;11.48;52.17;96047.19;4972194;28;20200;-67
2021/04/11 01:28:29;;;;;;;1.37;1.33;;;;;;;11.39;52.28;96046.03;4971894;28;20589;-67
2021/04/11 01:31:05;;;;;;;1.30;1.30;;;;;;;11.40;52.21;96047.63;4971680;28;20271;-67
2021/04/11 01:33:34;;;;;;;1.47;1.37;;;;;;;11.46;52.18;96041.38;4972609;28;20724;-67
2021/04/11 01:36:01;;;;;;;1.33;1.23;;;;;;;11.38;52.49;96047.88;4971844;28;20204;-67
2021/04/11 01:38:27;;;;;;;2.93;1.60;;;;;;;11.37;52.41;96043.66;4972347;28;20649;-67
2021/04/11 01:41:00;;;;;;;1.40;1.30;;;;;;;11.44;52.18;96041.63;4971305;28;20203;-67
2021/04/11 01:43:26;;;;;;;1.80;1.70;;;;;;;11.50;52.38;96039.84;4972076;28;20256;-67
2021/04/11 01:45:53;;;;;;;1.20;1.20;;;;;;;11.56;52.01;96044.09;4970809;28;20683;-68
2021/04/11 01:48:19;;;;;;;1.57;1.47;;;;;;;11.61;51.68;96033.63;4954934;28;20259;-68
2021/04/11 01:50:46;;;;;;;1.50;1.40;;;;;;;11.65;51.82;96030.25;4954242;28;20192;-67
2021/04/11 01:53:13;;;;;;;1.30;1.30;;;;;;;11.60;51.93;96032.03;4970888;28;20237;-68
2021/04/11 01:55:39;;;;;;;1.57;1.47;;;;;;;11.67;52.16;96030.78;4971509;28;20275;-67
2021/04/11 01:58:04;;;;;;;2.13;1.40;;;;;;;11.63;52.18;96023.69;4971343;28;20272;-68
2021/04/11 02:00:40;;;;;;;3.03;2.17;;;;;;;11.57;51.94;96022.84;4971835;28;20251;-67
2021/04/11 02:03:15;;;;;;;1.60;1.50;;;;;;;11.59;52.15;96027.84;4971045;28;20259;-67
2021/04/11 02:05:42;;;;;;;1.57;1.47;;;;;;;11.62;51.85;96027.34;4971869;28;20901;-67
2021/04/11 02:08:11;;;;;;;2.80;1.50;;;;;;;11.77;51.84;96021.41;4971099;28;20215;-68
2021/04/11 02:10:42;;;;;;;3.07;2.20;;;;;;;11.70;53.84;96026.09;4971541;28;20181;-67
2021/04/11 02:13:08;;;;;;;3.70;2.90;;;;;;;11.62;55.26;96022.09;4953648;28;20278;-67
2021/04/11 02:15:40;;;;;;;6.87;4.10;;;;;;;11.65;55.35;96029.44;4971502;28;20607;-67
2021/04/11 02:18:05;;;;;;;4.73;2.87;;;;;;;11.65;55.46;96024.19;4953817;28;20215;-66
2021/04/11 02:20:32;;;;;;;1.70;1.60;;;;;;;11.73;54.64;96021.16;4971764;28;20263;-67
2021/04/11 02:22:58;;;;;;;1.87;1.30;;;;;;;11.71;53.42;96025.03;4953929;28;20192;-67
2021/04/11 02:25:28;;;;;;;1.57;1.47;;;;;;;11.74;53.36;96016.69;4971462;28;20188;-67
2021/04/11 02:27:55;;;;;;;1.80;1.60;;;;;;;11.68;54.02;96013.22;4942277;28;20204;-67
2021/04/11 02:30:23;;;;;;;1.20;1.20;;;;;;;11.75;53.15;96015.66;4974604;28;20189;-67
2021/04/11 02:32:49;;;;;;;2.00;1.63;;;;;;;11.72;53.35;96013.47;4975124;28;20200;-66
2021/04/11 02:35:20;;;;;;;1.27;1.17;;;;;;;11.76;53.05;96007.50;4975237;28;20189;-66
2021/04/11 02:37:50;;;;;;;1.27;1.20;;;;;;;11.75;52.85;96008.56;4975684;28;20180;-68
2021/04/11 02:40:21;;;;;;;3.20;1.50;;;;;;;11.86;52.22;96007.59;4957788;28;20173;-68
2021/04/11 02:42:47;;;;;;;2.40;1.37;;;;;;;11.79;52.42;96014.09;4975501;28;20177;-66
2021/04/11 02:45:25;;;;;;;3.17;1.50;;;;;;;11.78;52.57;96015.13;4974582;28;20239;-66
2021/04/11 02:47:52;;;;;;;1.57;1.47;;;;;;;11.70;52.64;96011.13;4962600;28;20213;-66
2021/04/11 02:50:19;;;;;;;2.00;1.30;;;;;;;11.72;52.89;96010.84;4949127;28;20622;-67
2021/04/11 02:53:27;;;;;;;2.77;1.80;;;;;;;11.73;52.52;96007.19;4975083;28;20246;-67
2021/04/11 02:55:54;;;;;;;1.60;1.50;;;;;;;11.79;52.57;96006.22;4974577;28;20544;-66
2021/04/11 02:58:21;;;;;;;3.60;1.63;;;;;;;11.73;52.81;96004.56;4975203;28;20584;-68
2021/04/11 03:00:56;;;;;;;1.47;1.33;;;;;;;11.74;52.66;96003.56;4975246;28;20189;-66
2021/04/11 03:03:21;;;;;;;1.27;1.27;;;;;;;11.73;53.12;95997.53;4974988;28;20168;-68
2021/04/11 03:05:47;;;;;;;1.47;1.40;;;;;;;11.72;52.53;95997.75;4975008;28;20181;-66
2021/04/11 03:08:17;;;;;;;1.53;1.43;;;;;;;11.71;52.89;96004.81;4974300;28;20279;-67
2021/04/11 03:11:06;;;;;;;3.00;1.50;;;;;;;11.79;52.87;95999.13;4974988;28;20275;-68
2021/04/11 03:13:33;;;;;;;2.80;1.60;;;;;;;11.62;53.38;95990.59;4975492;28;20181;-68
2021/04/11 03:15:59;;;;;;;3.03;2.00;;;;;;;11.66;53.37;95994.28;4974213;28;20188;-68
2021/04/11 03:18:25;;;;;;;1.97;1.70;;;;;;;11.68;53.43;95998.25;4974847;28;20181;-68
2021/04/11 03:20:51;;;;;;;4.30;1.77;;;;;;;11.64;53.33;95989.31;4973960;28;20251;-66
2021/04/11 03:23:19;;;;;;;1.70;1.60;;;;;;;11.58;53.62;95992.16;4974826;28;20657;-68
2021/04/11 03:25:45;;;;;;;3.07;1.50;;;;;;;11.63;53.36;95994.81;4975248;28;20268;-67
2021/04/11 03:28:18;;;;;;;7.10;1.60;;;;;;;11.59;53.63;95993.72;4974319;28;20275;-67
2021/04/11 03:30:52;;;;;;;2.67;1.53;;;;;;;11.56;53.72;95984.50;4974495;28;20649;-67
2021/04/11 03:33:20;;;;;;;2.10;1.60;;;;;;;11.50;53.78;95982.91;4974352;28;20633;-67
2021/04/11 03:35:49;;;;;;;1.60;1.43;;;;;;;11.61;53.44;95975.88;4974585;28;20192;-67
2021/04/11 03:38:17;;;;;;;1.83;1.67;;;;;;;11.49;53.40;95978.69;4974089;28;20196;-68
2021/04/11 03:40:45;;;;;;;2.30;2.10;;;;;;;11.47;53.56;95978.16;4973938;28;20276;-68
2021/04/11 03:43:18;;;;;;;4.77;3.27;;;;;;;11.46;53.95;95984.44;4973799;28;20333;-68
2021/04/11 03:45:44;;;;;;;2.43;2.10;;;;;;;11.42;53.48;95987.84;4974680;28;20263;-68
2021/04/11 03:48:19;;;;;;;3.80;1.73;;;;;;;11.37;53.84;95987.78;4973515;28;20292;-68
2021/04/11 03:50:55;;;;;;;2.40;1.80;;;;;;;11.29;54.21;95993.50;4973712;28;20200;-68
2021/04/11 03:53:25;;;;;;;1.50;1.40;;;;;;;11.26;54.35;95979.81;4974738;28;20778;-67
2021/04/11 03:55:53;;;;;;;1.40;1.30;;;;;;;11.38;53.72;95987.53;4974435;28;20699;-66
2021/04/11 03:58:28;;;;;;;2.27;1.20;;;;;;;11.42;53.86;95988.63;4974181;28;20252;-68
2021/04/11 04:00:59;;;;;;;1.77;1.23;;;;;;;11.25;54.41;95986.13;4973705;28;20524;-66
2021/04/11 04:03:30;;;;;;;3.40;1.57;;;;;;;11.22;54.66;95993.69;4956407;28;20189;-67
2021/04/11 04:06:03;;;;;;;2.10;1.50;;;;;;;11.19;54.84;95991.59;4973417;28;20196;-67
2021/04/11 04:08:28;;;;;;;1.63;1.53;;;;;;;11.21;55.00;95992.91;4974308;28;20185;-67
2021/04/11 04:11:26;;;;;;;2.27;2.07;;;;;;;11.37;54.65;95987.78;4956618;28;20212;-66
2021/04/11 04:14:15;;;;;;;2.93;1.60;;;;;;;11.27;55.22;95985.84;4952647;28;20244;-66
2021/04/11 04:17:07;;;;;;;4.00;1.50;;;;;;;11.17;55.78;95991.81;4969749;28;20331;-68
2021/04/11 04:19:35;;;;;;;3.20;1.77;;;;;;;11.33;55.20;95992.72;4957475;28;20220;-67
2021/04/11 04:22:09;;;;;;;2.30;2.10;;;;;;;11.12;55.86;95994.41;4972811;28;20239;-67
2021/04/11 04:24:46;;;;;;;1.93;1.80;;;;;;;11.12;56.27;95997.03;4973903;28;20243;-67
2021/04/11 04:27:33;;;;;;;2.57;1.83;;;;;;;11.16;56.22;95998.09;4972953;28;20207;-68
2021/04/11 04:30:08;;;;;;;2.77;1.90;;;;;;;11.15;56.05;95996.50;4972622;28;20189;-67
2021/04/11 04:33:04;;;;;;;1.50;1.43;;;;;;;11.19;56.27;96002.88;4954925;28;20200;-66
2021/04/11 04:35:32;;;;;;;2.30;1.80;;;;;;;11.22;56.04;96006.81;4973870;28;20584;-67
2021/04/11 04:38:29;;;;;;;1.93;1.83;;;;;;;11.30;55.60;96001.13;4972990;28;20177;-66
2021/04/11 04:41:20;;;;;;;3.47;1.80;;;;;;;11.35;55.69;96000.38;4949166;28;20724;-66
2021/04/11 04:44:01;;;;;;;2.17;2.00;;;;;;;11.41;55.47;96004.59;4956099;28;20183;-67
2021/04/11 04:46:56;;;;;;;2.33;1.70;;;;;;;11.29;56.14;95996.91;4972965;28;20675;-66
2021/04/11 04:49:27;;;;;;;2.07;1.97;;;;;;;11.24;56.38;95994.25;4965008;28;20196;-66
2021/04/11 04:51:58;;;;;;;2.70;2.20;;;;;;;11.24;56.71;95995.03;4971678;28;20693;-66
2021/04/11 04:54:50;;;;;;;2.60;1.70;;;;;;;11.19;56.54;96005.50;4971968;28;20173;-67
2021/04/11 04:57:48;;;;;;;2.43;2.00;;;;;;;11.22;56.38;95991.88;4964706;28;20684;-66
2021/04/11 05:00:26;;;;;;;2.67;2.27;;;;;;;11.22;56.71;96002.34;4971995;28;20177;-67
2021/04/11 05:03:02;;;;;;;2.57;2.10;;;;;;;11.29;56.56;95999.53;4972991;28;20177;-66
2021/04/11 05:05:30;;;;;;;2.63;1.90;;;;;;;11.25;56.26;95994.00;4965822;28;20635;-67
2021/04/11 05:07:58;;;;;;;2.57;1.97;;;;;;;11.24;56.72;96000.28;4971756;28;20197;-66
2021/04/11 05:10:31;;;;;;;4.07;2.30;;;;;;;11.32;56.30;96000.84;4972613;28;20641;-67
2021/04/11 05:13:06;;;;;;;2.13;1.90;;;;;;;11.39;55.98;96004.06;4972218;28;20181;-66
2021/04/11 05:15:37;;;;;;;2.13;1.93;;;;;;;11.41;56.35;96004.59;4958405;28;20212;-68
2021/04/11 05:18:07;;;;;;;2.40;2.20;;;;;;;11.38;55.98;96012.97;4954955;28;20191;-67
2021/04/11 05:20:39;;;;;;;5.50;3.80;;;;;;;11.46;56.00;95999.41;4965831;28;20219;-67
2021/04/11 05:23:17;;;;;;;9.37;4.63;;;;;;;11.47;56.13;95998.38;4954626;28;20820;-67
2021/04/11 05:26:07;;;;;;;5.93;4.37;;;;;;;11.60;56.07;95997.91;4972204;28;20173;-66
2021/04/11 05:28:45;;;;;;;7.17;4.20;;;;;;;11.61;55.71;95997.66;4972704;28;20181;-67
2021/04/11 05:31:33;;;;;;;4.73;3.67;;;;;;;11.55;55.99;96006.56;4971993;28;20185;-67
2021/04/11 05:34:00;;;;;;;5.47;3.60;;;;;;;11.64;55.87;96002.44;4954866;28;20177;-67
2021/04/11 05:36:28;;;;;;;3.70;2.90;;;;;;;11.67;55.61;96007.16;4972869;28;20189;-67
2021/04/11 05:39:12;;;;;;;4.53;2.93;;;;;;;11.80;55.56;96002.56;4972491;28;20672;-65
2021/04/11 05:41:47;;;;;;;3.53;2.50;;;;;;;11.80;55.11;96007.81;4958742;28;20689;-68
2021/04/11 05:44:20;;;;;;;5.47;2.57;;;;;;;11.86;55.13;96014.69;4972381;28;20176;-67
2021/04/11 05:46:54;;;;;;;3.80;2.50;;;;;;;11.92;55.32;96014.47;4972824;28;20200;-68
2021/04/11 05:49:31;;;;;;;3.53;2.10;;;;;;;11.94;54.55;96011.56;4972919;28;20194;-68
2021/04/11 05:52:03;;;;;;;2.30;2.10;;;;;;;12.12;54.44;96015.59;4971445;28;20291;-66
2021/04/11 05:54:33;;;;;;;2.77;2.10;;;;;;;12.07;54.56;96014.53;4972581;28;20188;-68
2021/04/11 05:57:08;;;;;;;2.30;2.10;;;;;;;12.23;53.90;96007.53;4953673;28;20184;-67
2021/04/11 06:00:10;;;;;;;3.67;1.87;;;;;;;12.30;53.69;96005.47;4972199;28;20215;-68
2021/04/11 06:02:57;;;;;;;2.00;1.90;;;;;;;12.42;53.54;96007.88;4953455;28;20196;-68
2021/04/11 06:05:29;;;;;;;2.33;1.80;;;;;;;12.52;53.38;96009.75;4969164;28;20177;-67
2021/04/11 06:07:55;;;;;;;1.90;1.80;;;;;;;12.58;52.74;96013.97;4971317;28;20197;-67
2021/04/11 06:10:28;;;;;;;2.20;1.80;;;;;;;12.61;52.89;96008.19;4971760;28;20211;-66
2021/04/11 06:13:11;;;;;;;1.70;1.60;;;;;;;12.69;52.60;96010.34;4971035;28;20172;-67
2021/04/11 06:15:49;;;;;;;2.93;1.67;;;;;;;12.45;52.70;96007.34;4972253;28;20177;-66
2021/04/11 06:18:15;;;;;;;1.60;1.50;;;;;;;12.28;53.31;96004.13;4971226;28;20181;-65
2021/04/11 06:20:44;;;;;;;1.90;1.50;;;;;;;12.56;52.44;96001.09;4971314;28;20191;-65
2021/04/11 06:23:28;;;;;;;1.80;1.47;;;;;;;12.75;52.11;95998.78;4970884;28;20548;-69
2021/04/11 06:26:07;;;;;;;3.43;1.50;;;;;;;12.98;51.60;96002.78;4971397;28;20172;-69
2021/04/11 06:28:47;;;;;;;1.27;1.17;;;;;;;13.14;51.19;95997.31;4954586;28;20179;-69
2021/04/11 06:31:26;;;;;;;3.00;1.70;;;;;;;13.18;51.54;95998.38;4970613;28;20239;-68
2021/04/11 06:34:10;;;;;;;4.33;1.80;;;;;;;13.34;50.98;96004.41;4954340;28;20659;-69
2021/04/11 06:36:40;;;;;;;2.50;1.60;;;;;;;13.36;51.24;96004.97;4971768;28;20173;-68
2021/04/11 06:39:13;;;;;;;2.83;1.90;;;;;;;13.46;51.09;95996.25;4970827;28;20170;-69
2021/04/11 06:42:18;;;;;;;2.20;1.87;;;;;;;13.53;51.32;95994.94;4954497;28;20189;-67
2021/04/11 06:44:43;;;;;;;3.07;1.83;;;;;;;13.60;51.03;95992.03;4953450;28;20479;-67
2021/04/11 06:47:33;;;;;;;5.70;2.10;;;;;;;13.86;50.42;95993.59;4970414;28;20299;-67
2021/04/11 06:50:08;;;;;;;2.20;2.00;;;;;;;14.22;49.70;95982.94;4959718;28;20197;-67
2021/04/11 06:52:39;;;;;;;3.00;2.10;;;;;;;14.39;49.29;95994.00;4953562;28;20232;-67
2021/04/11 06:55:16;;;;;;;2.30;1.80;;;;;;;14.71;48.50;95994.38;4970045;28;20545;-67
2021/04/11 06:58:04;;;;;;;2.10;1.90;;;;;;;15.02;47.82;95989.72;4953586;28;20646;-67
2021/04/11 07:00:53;;;;;;;2.47;1.90;;;;;;;15.16;47.21;95985.41;4963557;28;20173;-65
2021/04/11 07:03:37;;;;;;;2.30;2.10;;;;;;;15.44;47.15;95985.72;4970420;28;20209;-65
2021/04/11 07:06:46;;;;;;;1.85;1.75;;;;;;;15.36;45.52;95987.91;4964267;28;20185;-67
2021/04/11 07:09:41;;;;;;;2.30;2.10;;;;;;;15.42;46.61;95985.22;4934273;28;20661;-67
2021/04/11 07:12:31;;;;;;;2.65;2.45;;;;;;;15.59;46.91;95989.06;4964726;28;20184;-68
2021/04/11 07:15:25;;;;;;;2.40;2.20;;;;;;;15.91;45.97;95980.56;4971476;28;20184;-67
2021/04/11 07:18:03;;;;;;;2.45;2.25;;;;;;;16.10;45.29;95986.72;4957413;28;20219;-67
2021/04/11 07:21:05;;;;;;;2.58;2.38;;;;;;;16.11;45.43;95990.94;4975173;28;20179;-67
2021/04/11 07:23:36;;;;;;;4.30;2.40;;;;;;;16.18;45.21;95991.38;4967563;28;20192;-67
2021/04/11 07:26:32;;;;;;;2.67;2.47;;;;;;;16.25;45.07;95985.78;4973533;28;20181;-66
2021/04/11 07:29:35;;;;;;;2.60;2.40;;;;;;;16.55;44.72;95992.56;4974724;28;21872;-66
2021/04/11 07:32:22;;;;;;;2.88;2.13;;;;;;;16.71;43.47;95995.84;4974172;28;20191;-66
2021/04/11 07:35:21;;;;;;;3.47;2.20;;;;;;;17.10;43.18;95993.72;4974264;28;20710;-67
2021/04/11 07:38:30;;;;;;;3.53;2.60;;;;;;;17.31;42.35;95989.69;4956903;28;20180;-67
2021/04/11 07:41:05;;;;;;;2.65;2.40;;;;;;;17.33;42.30;95989.41;4957023;28;20180;-66
2021/04/11 07:43:33;;;;;;;3.58;2.47;;;;;;;17.05;42.84;95989.25;4974734;28;20231;-66
2021/04/11 07:46:21;;;;;;;3.72;2.35;;;;;;;16.67;43.60;95994.81;4974504;28;20184;-67
2021/04/11 07:49:31;;;;;;;2.90;2.70;;;;;;;16.69;44.04;95996.13;4971746;28;20195;-67
2021/04/11 07:52:11;;;;;;;3.85;2.40;;;;;;;16.41;46.93;95999.59;4950640;28;20235;-62
2021/04/11 07:54:57;;;;;;;2.50;2.30;;;;;;;16.69;45.08;96001.41;4971211;28;20183;-67
2021/04/11 07:57:45;;;;;;;3.13;2.78;;;;;;;16.57;45.36;95995.69;4973684;28;20224;-67
2021/04/11 08:00:29;;;;;;;2.85;2.30;;;;;;;16.87;45.28;96002.50;4972647;28;20267;-68
2021/04/11 08:03:18;;;;;;;2.30;2.20;;;;;;;17.02;43.48;96002.28;4973873;28;20197;-67
2021/04/11 08:06:02;;;;;;;2.60;2.40;;;;;;;16.72;44.43;96000.06;4973781;28;20638;-65
2021/04/11 08:08:33;;;;;;;4.35;2.70;;;;;;;16.76;45.14;95999.22;4973709;28;20200;-62
2021/04/11 08:11:17;;;;;;;2.17;2.08;;;;;;;16.70;43.92;95997.69;4973807;28;20192;-66
2021/04/11 08:14:07;;;;;;;3.50;2.45;;;;;;;16.68;43.90;95996.38;4967158;28;20223;-66
2021/04/11 08:16:58;;;;;;;2.53;2.33;;;;;;;16.80;45.11;95996.78;4972410;28;20185;-68
2021/04/11 08:20:01;;;;;;;2.40;2.20;;;;;;;16.78;44.70;96001.53;4972374;28;20199;-67
2021/04/11 08:22:56;;;;;;;3.08;2.80;;;;;;;16.57;45.40;96001.78;4912195;29;20190;-66
2021/04/11 08:25:33;;;;;;;2.70;2.50;;;;;;;16.41;46.28;96013.63;4972809;28;20177;-67
2021/04/11 08:28:36;;;;;;;2.33;2.13;;;;;;;16.50;45.78;96005.84;4955584;28;20251;-67
2021/04/11 08:31:30;;;;;;;3.10;2.90;;;;;;;16.51;46.09;96002.91;4969396;28;20933;-67
2021/04/11 08:34:14;;;;;;;2.60;2.40;;;;;;;16.82;45.77;95998.06;4966554;28;20169;-67
2021/04/11 08:36:48;;;;;;;2.10;2.00;;;;;;;17.17;44.10;96004.72;4972720;28;20188;-67
2021/04/11 08:39:42;;;;;;;2.50;2.30;;;;;;;17.36;44.00;95999.41;4972036;28;20192;-67
2021/04/11 08:42:53;;;;;;;3.05;2.20;;;;;;;17.44;44.58;95996.13;4969700;28;20207;-67
2021/04/11 08:45:18;;;;;;;2.38;2.17;;;;;;;17.33;45.06;95984.88;4954663;28;20215;-67
2021/04/11 08:48:04;;;;;;;2.17;2.00;;;;;;;17.32;44.77;95998.41;4973195;28;20208;-68
2021/04/11 08:50:57;;;;;;;2.20;2.10;;;;;;;17.46;44.26;95996.59;4969602;28;20176;-67
2021/04/11 08:53:26;;;;;;;2.35;2.15;;;;;;;17.66;44.13;95990.22;4964281;28;20241;-67
2021/04/11 08:56:01;;;;;;;2.00;1.90;;;;;;;17.65;43.45;95989.44;4973184;28;20231;-67
2021/04/11 08:58:55;;;;;;;2.40;2.20;;;;;;;17.58;42.55;95996.94;4971358;28;20184;-68
2021/04/11 09:01:45;;;;;;;2.58;2.38;;;;;;;17.74;42.53;95987.69;4972248;28;20188;-67
2021/04/11 09:04:16;;;;;;;2.42;2.22;;;;;;;17.89;42.19;95985.88;4972036;28;20188;-68
2021/04/11 09:07:00;;;;;;;2.50;2.30;;;;;;;18.04;41.21;95986.38;4972428;28;20251;-68
2021/04/11 09:10:03;;;;;;;2.60;2.40;;;;;;;17.96;41.32;95994.19;4972689;28;20243;-68
2021/04/11 09:13:10;;;;;;;2.20;2.10;;;;;;;18.13;40.88;95989.91;4972475;28;20180;-67
2021/04/11 09:15:38;;;;;;;2.28;2.10;;;;;;;18.30;40.86;95989.31;4973375;28;20586;-68
2021/04/11 09:18:41;;;;;;;3.38;2.70;;;;;;;18.40;40.83;95998.94;4972488;28;20200;-67
2021/04/11 09:21:22;;;;;;;3.28;2.60;;;;;;;18.57;40.59;95994.66;4972085;28;20191;-67
2021/04/11 09:24:08;;;;;;;2.83;2.65;;;;;;;18.94;40.14;95998.94;4973390;28;20185;-68
2021/04/11 09:26:39;;;;;;;4.38;3.00;;;;;;;18.82;39.18;95989.91;4948997;28;20208;-68
2021/04/11 09:29:27;;;;;;;3.08;2.88;;;;;;;18.55;39.40;95993.38;4972380;28;20304;-67
2021/04/11 09:32:30;;;;;;;2.45;2.35;;;;;;;18.85;39.16;95997.25;4955278;28;20195;-68
2021/04/11 09:35:19;;;;;;;3.08;2.88;;;;;;;18.62;39.35;95991.09;4969421;28;20744;-67
2021/04/11 09:38:02;;;;;;;3.33;2.35;;;;;;;18.88;38.98;95997.47;4958989;28;20212;-68
2021/04/11 09:40:53;;;;;;;3.13;2.92;;;;;;;18.56;39.44;95986.97;4971709;28;20172;-68
2021/04/11 09:43:37;;;;;;;3.83;3.10;;;;;;;18.93;39.17;95994.72;4957371;28;20184;-68
2021/04/11 09:46:20;;;;;;;2.70;2.50;;;;;;;19.11;40.37;95993.75;4972331;28;20180;-64
2021/04/11 09:48:57;;;;;;;4.68;3.80;;;;;;;19.46;39.92;96000.16;4972576;28;20180;-65
2021/04/11 09:51:49;;;;;;;4.90;3.47;;;;;;;19.67;38.77;95989.06;4971149;28;20236;-68
2021/04/11 09:54:36;;;;;;;3.33;3.03;;;;;;;19.64;38.05;95981.66;4971900;28;20189;-68
2021/04/11 09:57:20;;;;;;;3.42;3.22;;;;;;;19.54;37.62;95989.91;4972474;28;20184;-67
2021/04/11 09:59:49;;;;;;;3.40;3.10;;;;;;;19.26;37.94;95981.22;4959512;28;20177;-68
2021/04/11 10:02:40;;;;;;;3.50;3.25;;;;;;;18.83;38.79;95984.31;4971536;28;20231;-68
2021/04/11 10:05:31;;;;;;;3.50;3.10;;;;;;;18.96;39.06;95980.81;4964563;28;20562;-67
2021/04/11 10:08:20;;;;;;;3.65;3.45;;;;;;;18.92;38.97;95982.50;4969399;28;20213;-68
2021/04/11 10:11:07;;;;;;;3.53;3.22;;;;;;;19.07;38.35;95979.50;4955350;28;20203;-68
2021/04/11 10:13:32;;;;;;;3.67;3.47;;;;;;;18.82;38.16;95977.41;4957423;28;20180;-68
2021/04/11 10:16:19;;;;;;;4.10;3.80;;;;;;;18.71;38.65;95978.72;4970248;28;20203;-68
2021/04/11 10:19:15;;;;;;;3.70;3.40;;;;;;;18.61;38.71;95979.69;4972228;28;20188;-68
2021/04/11 10:22:02;;;;;;;3.10;2.90;;;;;;;18.65;38.90;95974.59;4961763;28;20559;-69
2021/04/11 10:24:45;;;;;;;3.67;3.47;;;;;;;18.73;38.45;95971.22;4971827;28;20618;-66
2021/04/11 10:27:19;;;;;;;3.08;2.97;;;;;;;18.89;38.34;95963.75;4965362;28;20274;-66
2021/04/11 10:29:46;;;;;;;3.33;2.85;;;;;;;19.10;37.92;95962.97;4971760;28;20181;-67
2021/04/11 10:32:11;;;;;;;3.10;2.88;;;;;;;19.18;38.31;95963.34;4970663;28;20530;-66
2021/04/11 10:34:53;;;;;;;3.70;3.42;;;;;;;19.62;37.19;95973.19;4954408;28;20184;-67
2021/04/11 10:37:37;;;;;;;4.55;3.13;;;;;;;19.78;36.36;95966.44;4970770;28;20529;-67
2021/04/11 10:40:11;;;;;;;3.95;3.33;;;;;;;20.08;36.23;95951.53;4957255;28;20622;-67
2021/04/11 10:42:44;;;;;;;3.75;3.42;;;;;;;20.51;36.26;95963.13;4972059;28;20653;-67
2021/04/11 10:45:16;;;;;;;4.65;4.35;;;;;;;20.87;35.24;95954.91;4970466;28;20666;-67
2021/04/11 10:48:18;;;;;;;5.00;4.63;;;;;;;21.26;34.83;95958.56;4971606;28;20259;-68
2021/04/11 10:50:55;;;;;;;5.18;4.82;;;;;;;20.91;34.69;95947.84;4972155;28;20184;-67
2021/04/11 10:53:58;;;;;;;5.07;4.88;;;;;;;20.87;34.99;95956.78;4975131;28;20635;-67
2021/04/11 10:56:32;;;;;;;6.18;5.57;;;;;;;20.97;34.78;95951.16;4971701;28;20263;-67
2021/04/11 10:59:27;;;;;;;5.75;5.43;;;;;;;20.91;34.64;95950.53;4974964;28;20183;-67
2021/04/11 11:02:10;;;;;;;6.70;6.20;;;;;;;20.87;34.77;95940.81;4956416;28;20192;-67
2021/04/11 11:05:01;;;;;;;6.00;5.60;;;;;;;20.76;34.76;95940.31;4957587;28;20197;-68
2021/04/11 11:07:51;;;;;;;5.78;5.47;;;;;;;20.55;34.88;95944.69;4973866;28;20196;-61
2021/04/11 11:10:54;;;;;;;5.63;5.40;;;;;;;20.55;35.12;95940.16;4975381;28;20185;-67
2021/04/11 11:13:52;;;;;;;6.00;5.65;;;;;;;20.73;34.74;95946.28;4941955;28;20200;-66
2021/04/11 11:16:28;;;;;;;6.32;5.93;;;;;;;20.66;34.96;95945.97;4957115;28;20193;-67
2021/04/11 11:19:24;;;;;;;6.25;5.75;;;;;;;20.39;35.05;95947.00;4958266;28;20661;-67
2021/04/11 11:22:17;;;;;;;6.47;5.38;;;;;;;20.12;35.38;95941.84;4969044;28;20212;-68
2021/04/11 11:25:04;;;;;;;5.25;4.85;;;;;;;20.13;35.87;95946.88;4975596;28;20181;-68
2021/04/11 11:27:47;;;;;;;5.82;5.50;;;;;;;20.02;35.77;95950.09;4974061;28;20215;-68
2021/04/11 11:30:34;;;;;;;5.60;5.20;;;;;;;19.49;36.39;95943.75;4974096;28;20189;-67
2021/04/11 11:33:03;;;;;;;4.93;4.63;;;;;;;19.51;36.95;95946.09;4974050;28;20555;-67
2021/04/11 11:35:30;;;;;;;5.38;4.97;;;;;;;19.60;36.96;95946.94;4972976;28;20366;-68
2021/04/11 11:38:15;;;;;;;4.88;4.57;;;;;;;19.68;36.68;95950.72;4974587;28;20199;-68
2021/04/11 11:41:00;;;;;;;5.32;5.03;;;;;;;19.79;36.51;95938.72;4975056;28;20181;-69
2021/04/11 11:43:36;;;;;;;5.68;5.25;;;;;;;19.86;36.31;95944.41;4956495;28;20696;-67
2021/04/11 11:46:26;;;;;;;4.70;4.40;;;;;;;19.58;36.37;95937.69;4957381;28;20271;-67
2021/04/11 11:48:58;;;;;;;4.90;4.53;;;;;;;19.79;36.60;95942.19;4955313;28;20548;-68
2021/04/11 11:51:29;;;;;;;5.13;4.82;;;;;;;20.33;35.94;95940.25;4972620;28;20240;-68
2021/04/11 11:54:03;;;;;;;5.10;4.90;;;;;;;20.40;35.45;95931.78;4965375;28;20188;-68
2021/04/11 11:56:37;;;;;;;6.25;5.85;;;;;;;20.75;35.36;95926.22;4973648;28;20814;-67
2021/04/11 11:59:17;;;;;;;5.13;4.72;;;;;;;21.09;34.62;95924.66;4974242;28;20539;-67
2021/04/11 12:01:50;;;;;;;5.43;5.13;;;;;;;21.15;34.53;95916.22;4973604;28;20173;-67
2021/04/11 12:04:31;;;;;;;5.82;5.47;;;;;;;21.30;34.25;95914.16;4973848;28;20535;-67
2021/04/11 12:06:59;;;;;;;4.80;4.60;;;;;;;21.07;34.22;95913.53;4974325;28;20284;-67
2021/04/11 12:09:31;;;;;;;5.35;5.05;;;;;;;21.05;34.09;95907.75;4973730;28;20192;-67
2021/04/11 12:12:20;;;;;;;5.82;5.32;;;;;;;20.70;34.92;95906.94;4974375;28;20181;-68
2021/04/11 12:15:06;;;;;;;6.10;5.63;;;;;;;20.88;35.30;95905.09;4974022;28;20625;-69
2021/04/11 12:17:46;;;;;;;5.80;5.50;;;;;;;20.79;35.16;95899.72;4973100;28;20291;-69
2021/04/11 12:20:38;;;;;;;5.60;5.18;;;;;;;20.93;34.61;95905.72;4972603;28;20196;-68
2021/04/11 12:23:14;;;;;;;5.75;5.45;;;;;;;21.37;34.13;95893.94;4944351;28;20216;-69
2021/04/11 12:25:41;;;;;;;7.15;6.72;;;;;;;21.44;33.20;95883.56;4974701;28;20187;-68